sensor_id;sensor_type;location;lat;lon;timestamp;P1;durP1;ratioP1;P2;durP2;ratioP2
15065;SDS011;7632;64.944;20.038;2024-02-28T01:46:48;1.30;;;1.20;;
15065;SDS011;7632;64.944;20.038;2024-02-28T01:49:16;1.00;;;0.90;;
15065;SDS011;7632;64.944;20.038;2024-02-28T01:51:44;1.10;;;1.00;;
15065;SDS011;7632;64.944;20.038;2024-02-28T01:54:12;1.13;;;1.03;;
15065;SDS011;7632;64.944;20.038;2024-02-28T01:56:40;1.30;;;0.90;;
15065;SDS011;7632;64.944;20.038;2024-02-28T01:59:08;1.93;;;1.13;;
15065;SDS011;7632;64.944;20.038;2024-02-28T02:01:37;1.33;;;1.13;;
15065;SDS011;7632;64.944;20.038;2024-02-28T02:04:05;1.27;;;1.07;;
15065;SDS011;7632;64.944;20.038;2024-02-28T02:06:32;1.40;;;1.30;;
15065;SDS011;7632;64.944;20.038;2024-02-28T02:09:03;1.20;;;1.10;;
15065;SDS011;7632;64.944;20.038;2024-02-28T02:11:30;1.60;;;1.40;;
15065;SDS011;7632;64.944;20.038;2024-02-28T02:13:58;1.40;;;1.10;;
15065;SDS011;7632;64.944;20.038;2024-02-28T02:16:25;1.40;;;1.30;;
15065;SDS011;7632;64.944;20.038;2024-02-28T02:18:52;1.90;;;1.37;;
15065;SDS011;7632;64.944;20.038;2024-02-28T02:21:22;3.93;;;1.40;;
15065;SDS011;7632;64.944;20.038;2024-02-28T02:23:51;2.33;;;1.17;;
15065;SDS011;7632;64.944;20.038;2024-02-28T02:26:18;2.70;;;1.10;;
15065;SDS011;7632;64.944;20.038;2024-02-28T02:28:45;1.20;;;1.10;;
15065;SDS011;7632;64.944;20.038;2024-02-28T02:31:13;1.30;;;1.20;;
15065;SDS011;7632;64.944;20.038;2024-02-28T02:33:40;1.53;;;1.30;;
15065;SDS011;7632;64.944;20.038;2024-02-28T02:36:07;1.50;;;1.40;;
15065;SDS011;7632;64.944;20.038;2024-02-28T02:38:34;2.23;;;1.30;;
15065;SDS011;7632;64.944;20.038;2024-02-28T02:41:02;1.30;;;1.10;;
15065;SDS011;7632;64.944;20.038;2024-02-28T02:43:29;1.40;;;1.30;;
15065;SDS011;7632;64.944;20.038;2024-02-28T02:45:56;1.33;;;1.23;;
15065;SDS011;7632;64.944;20.038;2024-02-28T02:48:23;1.40;;;1.10;;
15065;SDS011;7632;64.944;20.038;2024-02-28T02:50:50;1.30;;;1.20;;
15065;SDS011;7632;64.944;20.038;2024-02-28T02:53:17;1.20;;;1.10;;
15065;SDS011;7632;64.944;20.038;2024-02-28T02:55:44;1.17;;;1.07;;
15065;SDS011;7632;64.944;20.038;2024-02-28T02:58:12;1.20;;;1.10;;
15065;SDS011;7632;64.944;20.038;2024-02-28T03:00:39;1.50;;;1.40;;
15065;SDS011;7632;64.944;20.038;2024-02-28T03:03:06;1.67;;;1.10;;
15065;SDS011;7632;64.944;20.038;2024-02-28T03:05:33;1.30;;;1.20;;
15065;SDS011;7632;64.944;20.038;2024-02-28T03:08:00;1.57;;;1.47;;
15065;SDS011;7632;64.944;20.038;2024-02-28T03:10:27;1.33;;;1.20;;
15065;SDS011;7632;64.944;20.038;2024-02-28T03:12:55;1.53;;;1.20;;
15065;SDS011;7632;64.944;20.038;2024-02-28T03:15:23;1.17;;;1.07;;
15065;SDS011;7632;64.944;20.038;2024-02-28T03:17:50;1.47;;;1.37;;
15065;SDS011;7632;64.944;20.038;2024-02-28T03:20:17;1.40;;;1.20;;
15065;SDS011;7632;64.944;20.038;2024-02-28T03:22:43;1.33;;;1.20;;
15065;SDS011;7632;64.944;20.038;2024-02-28T03:25:10;2.10;;;1.30;;
15065;SDS011;7632;64.944;20.038;2024-02-28T03:27:37;1.43;;;1.20;;
15065;SDS011;7632;64.944;20.038;2024-02-28T03:30:04;1.50;;;1.40;;
15065;SDS011;7632;64.944;20.038;2024-02-28T03:32:34;1.47;;;1.10;;
15065;SDS011;7632;64.944;20.038;2024-02-28T03:35:01;1.33;;;1.23;;
15065;SDS011;7632;64.944;20.038;2024-02-28T03:37:29;1.67;;;1.20;;
15065;SDS011;7632;64.944;20.038;2024-02-28T03:39:56;1.40;;;1.30;;
15065;SDS011;7632;64.944;20.038;2024-02-28T03:42:23;3.00;;;1.20;;
15065;SDS011;7632;64.944;20.038;2024-02-28T03:44:50;1.20;;;1.10;;
15065;SDS011;7632;64.944;20.038;2024-02-28T03:47:17;1.67;;;1.20;;
15065;SDS011;7632;64.944;20.038;2024-02-28T03:49:45;2.00;;;1.10;;
15065;SDS011;7632;64.944;20.038;2024-02-28T03:52:12;1.20;;;1.10;;
15065;SDS011;7632;64.944;20.038;2024-02-28T03:54:41;1.40;;;1.00;;
15065;SDS011;7632;64.944;20.038;2024-02-28T03:57:08;1.40;;;1.20;;
15065;SDS011;7632;64.944;20.038;2024-02-28T03:59:35;1.50;;;1.10;;
15065;SDS011;7632;64.944;20.038;2024-02-28T04:02:02;1.20;;;1.10;;
15065;SDS011;7632;64.944;20.038;2024-02-28T04:04:29;3.70;;;1.40;;
15065;SDS011;7632;64.944;20.038;2024-02-28T04:06:57;3.40;;;1.40;;
15065;SDS011;7632;64.944;20.038;2024-02-28T04:09:24;1.77;;;1.20;;
15065;SDS011;7632;64.944;20.038;2024-02-28T04:11:51;1.30;;;1.20;;
15065;SDS011;7632;64.944;20.038;2024-02-28T04:14:18;2.00;;;1.47;;
15065;SDS011;7632;64.944;20.038;2024-02-28T04:16:45;1.70;;;1.40;;
15065;SDS011;7632;64.944;20.038;2024-02-28T04:19:12;1.97;;;1.30;;
15065;SDS011;7632;64.944;20.038;2024-02-28T04:21:39;1.20;;;1.10;;
15065;SDS011;7632;64.944;20.038;2024-02-28T04:24:07;1.20;;;1.10;;
15065;SDS011;7632;64.944;20.038;2024-02-28T04:26:35;1.87;;;1.00;;
15065;SDS011;7632;64.944;20.038;2024-02-28T04:29:02;1.10;;;1.00;;
15065;SDS011;7632;64.944;20.038;2024-02-28T04:31:31;1.93;;;1.00;;
15065;SDS011;7632;64.944;20.038;2024-02-28T04:33:57;1.63;;;1.40;;
15065;SDS011;7632;64.944;20.038;2024-02-28T04:36:24;1.07;;;0.97;;
15065;SDS011;7632;64.944;20.038;2024-02-28T04:38:53;1.40;;;1.30;;
15065;SDS011;7632;64.944;20.038;2024-02-28T04:41:22;1.30;;;1.20;;
15065;SDS011;7632;64.944;20.038;2024-02-28T04:43:48;1.13;;;1.03;;
15065;SDS011;7632;64.944;20.038;2024-02-28T04:46:15;1.40;;;1.30;;
15065;SDS011;7632;64.944;20.038;2024-02-28T04:48:42;2.33;;;1.10;;
15065;SDS011;7632;64.944;20.038;2024-02-28T04:51:09;2.90;;;1.23;;
15065;SDS011;7632;64.944;20.038;2024-02-28T04:53:36;1.30;;;1.20;;
15065;SDS011;7632;64.944;20.038;2024-02-28T04:56:05;1.33;;;1.07;;
15065;SDS011;7632;64.944;20.038;2024-02-28T04:58:33;1.30;;;1.20;;
15065;SDS011;7632;64.944;20.038;2024-02-28T05:01:01;2.23;;;1.20;;
15065;SDS011;7632;64.944;20.038;2024-02-28T05:03:29;1.10;;;1.00;;
15065;SDS011;7632;64.944;20.038;2024-02-28T05:05:56;1.23;;;1.10;;
15065;SDS011;7632;64.944;20.038;2024-02-28T05:08:23;1.30;;;1.10;;
15065;SDS011;7632;64.944;20.038;2024-02-28T05:10:51;1.20;;;1.10;;
15065;SDS011;7632;64.944;20.038;2024-02-28T05:13:18;2.00;;;1.40;;
15065;SDS011;7632;64.944;20.038;2024-02-28T05:15:48;1.53;;;1.20;;
15065;SDS011;7632;64.944;20.038;2024-02-28T05:18:15;1.10;;;1.00;;
15065;SDS011;7632;64.944;20.038;2024-02-28T05:20:43;1.73;;;1.20;;
15065;SDS011;7632;64.944;20.038;2024-02-28T05:23:10;2.43;;;1.40;;
15065;SDS011;7632;64.944;20.038;2024-02-28T05:25:37;1.10;;;1.00;;
15065;SDS011;7632;64.944;20.038;2024-02-28T05:28:04;1.30;;;1.20;;
15065;SDS011;7632;64.944;20.038;2024-02-28T05:30:31;1.43;;;1.30;;
15065;SDS011;7632;64.944;20.038;2024-02-28T05:32:59;2.70;;;1.20;;
15065;SDS011;7632;64.944;20.038;2024-02-28T05:35:26;1.20;;;1.10;;
15065;SDS011;7632;64.944;20.038;2024-02-28T05:37:53;1.20;;;1.07;;
15065;SDS011;7632;64.944;20.038;2024-02-28T05:40:20;2.10;;;1.33;;
15065;SDS011;7632;64.944;20.038;2024-02-28T05:42:47;1.13;;;1.03;;
15065;SDS011;7632;64.944;20.038;2024-02-28T05:45:14;1.30;;;1.20;;
15065;SDS011;7632;64.944;20.038;2024-02-28T05:47:41;1.83;;;1.13;;
15065;SDS011;7632;64.944;20.038;2024-02-28T05:50:10;1.20;;;1.10;;
15065;SDS011;7632;64.944;20.038;2024-02-28T05:52:38;1.33;;;1.10;;
15065;SDS011;7632;64.944;20.038;2024-02-28T05:55:07;1.27;;;1.17;;
15065;SDS011;7632;64.944;20.038;2024-02-28T05:57:34;3.20;;;1.20;;
15065;SDS011;7632;64.944;20.038;2024-02-28T06:00:01;1.37;;;1.27;;
15065;SDS011;7632;64.944;20.038;2024-02-28T06:02:35;1.20;;;1.10;;
15065;SDS011;7632;64.944;20.038;2024-02-28T06:05:02;1.43;;;1.10;;
15065;SDS011;7632;64.944;20.038;2024-02-28T06:07:30;2.47;;;1.30;;
15065;SDS011;7632;64.944;20.038;2024-02-28T06:09:57;1.17;;;1.07;;
15065;SDS011;7632;64.944;20.038;2024-02-28T06:12:24;1.13;;;1.03;;
15065;SDS011;7632;64.944;20.038;2024-02-28T06:14:51;1.30;;;1.20;;
15065;SDS011;7632;64.944;20.038;2024-02-28T06:17:18;1.37;;;1.20;;
15065;SDS011;7632;64.944;20.038;2024-02-28T06:19:46;1.50;;;1.33;;
15065;SDS011;7632;64.944;20.038;2024-02-28T06:22:13;1.77;;;1.30;;
15065;SDS011;7632;64.944;20.038;2024-02-28T06:24:41;1.77;;;1.50;;
15065;SDS011;7632;64.944;20.038;2024-02-28T06:27:08;2.20;;;1.40;;
15065;SDS011;7632;64.944;20.038;2024-02-28T06:29:37;1.37;;;1.23;;
15065;SDS011;7632;64.944;20.038;2024-02-28T06:32:04;4.37;;;1.67;;
15065;SDS011;7632;64.944;20.038;2024-02-28T06:34:31;1.57;;;1.30;;
15065;SDS011;7632;64.944;20.038;2024-02-28T06:36:58;1.30;;;1.20;;
15065;SDS011;7632;64.944;20.038;2024-02-28T06:39:25;2.13;;;1.50;;
15065;SDS011;7632;64.944;20.038;2024-02-28T06:41:53;1.53;;;1.27;;
15065;SDS011;7632;64.944;20.038;2024-02-28T06:44:20;1.53;;;1.20;;
15065;SDS011;7632;64.944;20.038;2024-02-28T06:46:47;1.40;;;1.07;;
15065;SDS011;7632;64.944;20.038;2024-02-28T06:49:14;3.73;;;1.30;;
15065;SDS011;7632;64.944;20.038;2024-02-28T06:51:43;2.50;;;1.20;;
15065;SDS011;7632;64.944;20.038;2024-02-28T06:54:10;1.47;;;1.20;;
15065;SDS011;7632;64.944;20.038;2024-02-28T06:56:37;3.03;;;1.67;;
15065;SDS011;7632;64.944;20.038;2024-02-28T06:59:05;1.80;;;1.40;;
15065;SDS011;7632;64.944;20.038;2024-02-28T07:01:33;1.90;;;1.37;;
15065;SDS011;7632;64.944;20.038;2024-02-28T07:03:59;1.20;;;1.10;;
15065;SDS011;7632;64.944;20.038;2024-02-28T07:06:26;1.73;;;1.40;;
15065;SDS011;7632;64.944;20.038;2024-02-28T07:08:53;2.10;;;1.30;;
15065;SDS011;7632;64.944;20.038;2024-02-28T07:11:20;1.43;;;1.33;;
15065;SDS011;7632;64.944;20.038;2024-02-28T07:13:47;1.43;;;1.33;;
15065;SDS011;7632;64.944;20.038;2024-02-28T07:16:15;1.53;;;1.13;;
15065;SDS011;7632;64.944;20.038;2024-02-28T07:18:42;1.30;;;1.20;;
15065;SDS011;7632;64.944;20.038;2024-02-28T07:21:09;1.20;;;1.10;;
15065;SDS011;7632;64.944;20.038;2024-02-28T07:23:38;2.40;;;1.40;;
15065;SDS011;7632;64.944;20.038;2024-02-28T07:26:05;2.10;;;1.20;;
15065;SDS011;7632;64.944;20.038;2024-02-28T07:28:32;1.80;;;1.13;;
15065;SDS011;7632;64.944;20.038;2024-02-28T07:30:59;2.77;;;1.40;;
15065;SDS011;7632;64.944;20.038;2024-02-28T07:33:27;1.73;;;1.33;;
15065;SDS011;7632;64.944;20.038;2024-02-28T07:35:54;1.63;;;1.50;;
15065;SDS011;7632;64.944;20.038;2024-02-28T07:38:25;1.30;;;1.20;;
15065;SDS011;7632;64.944;20.038;2024-02-28T07:40:52;2.07;;;1.60;;
15065;SDS011;7632;64.944;20.038;2024-02-28T07:43:19;2.70;;;1.50;;
15065;SDS011;7632;64.944;20.038;2024-02-28T07:45:46;2.03;;;1.33;;
15065;SDS011;7632;64.944;20.038;2024-02-28T07:48:13;2.87;;;1.30;;
15065;SDS011;7632;64.944;20.038;2024-02-28T07:50:44;1.67;;;1.27;;
15065;SDS011;7632;64.944;20.038;2024-02-28T07:53:10;1.50;;;1.33;;
15065;SDS011;7632;64.944;20.038;2024-02-28T07:55:38;1.33;;;1.20;;
15065;SDS011;7632;64.944;20.038;2024-02-28T07:58:05;2.33;;;1.37;;
15065;SDS011;7632;64.944;20.038;2024-02-28T08:00:32;3.23;;;1.40;;
15065;SDS011;7632;64.944;20.038;2024-02-28T08:02:59;2.17;;;1.40;;
15065;SDS011;7632;64.944;20.038;2024-02-28T08:05:26;1.57;;;1.37;;
15065;SDS011;7632;64.944;20.038;2024-02-28T08:07:54;1.43;;;1.27;;
15065;SDS011;7632;64.944;20.038;2024-02-28T08:10:21;1.70;;;1.30;;
15065;SDS011;7632;64.944;20.038;2024-02-28T08:12:48;1.70;;;1.20;;
15065;SDS011;7632;64.944;20.038;2024-02-28T08:15:14;1.47;;;1.13;;
15065;SDS011;7632;64.944;20.038;2024-02-28T08:17:41;1.70;;;1.20;;
15065;SDS011;7632;64.944;20.038;2024-02-28T08:20:08;1.40;;;1.30;;
15065;SDS011;7632;64.944;20.038;2024-02-28T08:22:35;2.97;;;1.23;;
15065;SDS011;7632;64.944;20.038;2024-02-28T08:25:04;1.20;;;1.10;;
15065;SDS011;7632;64.944;20.038;2024-02-28T08:27:31;3.27;;;1.27;;
15065;SDS011;7632;64.944;20.038;2024-02-28T08:29:59;1.83;;;1.30;;
15065;SDS011;7632;64.944;20.038;2024-02-28T08:32:26;1.50;;;1.40;;
15065;SDS011;7632;64.944;20.038;2024-02-28T08:34:53;1.27;;;1.10;;
15065;SDS011;7632;64.944;20.038;2024-02-28T08:37:21;1.47;;;1.10;;
15065;SDS011;7632;64.944;20.038;2024-02-28T08:39:48;1.40;;;1.30;;
15065;SDS011;7632;64.944;20.038;2024-02-28T08:42:16;1.80;;;1.30;;
15065;SDS011;7632;64.944;20.038;2024-02-28T08:44:43;1.37;;;1.13;;
15065;SDS011;7632;64.944;20.038;2024-02-28T08:47:13;1.53;;;1.37;;
15065;SDS011;7632;64.944;20.038;2024-02-28T08:49:40;1.20;;;1.10;;
15065;SDS011;7632;64.944;20.038;2024-02-28T08:52:06;2.83;;;1.30;;
15065;SDS011;7632;64.944;20.038;2024-02-28T08:54:33;1.40;;;1.10;;
15065;SDS011;7632;64.944;20.038;2024-02-28T08:57:00;2.00;;;1.27;;
15065;SDS011;7632;64.944;20.038;2024-02-28T08:59:28;1.63;;;1.17;;
15065;SDS011;7632;64.944;20.038;2024-02-28T09:01:55;1.47;;;1.20;;
15065;SDS011;7632;64.944;20.038;2024-02-28T09:04:22;1.67;;;1.20;;
15065;SDS011;7632;64.944;20.038;2024-02-28T09:06:49;1.93;;;1.23;;
15065;SDS011;7632;64.944;20.038;2024-02-28T09:09:18;2.30;;;1.23;;
15065;SDS011;7632;64.944;20.038;2024-02-28T09:11:45;2.20;;;1.40;;
15065;SDS011;7632;64.944;20.038;2024-02-28T09:14:12;2.37;;;1.13;;
15065;SDS011;7632;64.944;20.038;2024-02-28T09:16:40;1.30;;;1.20;;
15065;SDS011;7632;64.944;20.038;2024-02-28T09:19:07;2.50;;;1.30;;
15065;SDS011;7632;64.944;20.038;2024-02-28T09:21:34;1.77;;;1.30;;
15065;SDS011;7632;64.944;20.038;2024-02-28T09:24:00;1.80;;;1.30;;
15065;SDS011;7632;64.944;20.038;2024-02-28T09:26:27;1.60;;;1.20;;
15065;SDS011;7632;64.944;20.038;2024-02-28T09:28:54;2.03;;;1.37;;
15065;SDS011;7632;64.944;20.038;2024-02-28T09:31:21;1.60;;;1.40;;
15065;SDS011;7632;64.944;20.038;2024-02-28T09:33:49;2.40;;;1.20;;
15065;SDS011;7632;64.944;20.038;2024-02-28T09:36:16;1.47;;;1.20;;
15065;SDS011;7632;64.944;20.038;2024-02-28T09:38:43;2.07;;;1.50;;
15065;SDS011;7632;64.944;20.038;2024-02-28T09:41:14;1.93;;;1.20;;
15065;SDS011;7632;64.944;20.038;2024-02-28T09:43:41;1.30;;;1.20;;
15065;SDS011;7632;64.944;20.038;2024-02-28T09:46:08;2.00;;;1.30;;
15065;SDS011;7632;64.944;20.038;2024-02-28T09:48:38;1.87;;;1.20;;
15065;SDS011;7632;64.944;20.038;2024-02-28T09:51:07;1.97;;;1.30;;
15065;SDS011;7632;64.944;20.038;2024-02-28T09:53:35;1.17;;;1.07;;
15065;SDS011;7632;64.944;20.038;2024-02-28T09:56:02;1.43;;;1.10;;
15065;SDS011;7632;64.944;20.038;2024-02-28T09:58:29;1.10;;;1.00;;
15065;SDS011;7632;64.944;20.038;2024-02-28T10:00:58;2.40;;;1.13;;
15065;SDS011;7632;64.944;20.038;2024-02-28T10:03:29;1.20;;;1.10;;
15065;SDS011;7632;64.944;20.038;2024-02-28T10:05:57;1.63;;;1.10;;
15065;SDS011;7632;64.944;20.038;2024-02-28T10:08:25;1.93;;;1.30;;
15065;SDS011;7632;64.944;20.038;2024-02-28T10:10:52;2.13;;;1.30;;
15065;SDS011;7632;64.944;20.038;2024-02-28T10:13:21;1.30;;;1.20;;
15065;SDS011;7632;64.944;20.038;2024-02-28T10:15:48;2.77;;;1.47;;
15065;SDS011;7632;64.944;20.038;2024-02-28T10:18:15;2.37;;;1.33;;
15065;SDS011;7632;64.944;20.038;2024-02-28T10:20:42;2.00;;;1.30;;
15065;SDS011;7632;64.944;20.038;2024-02-28T10:23:09;1.53;;;1.30;;
15065;SDS011;7632;64.944;20.038;2024-02-28T10:25:43;1.30;;;1.10;;
15065;SDS011;7632;64.944;20.038;2024-02-28T10:28:10;2.33;;;1.20;;
15065;SDS011;7632;64.944;20.038;2024-02-28T10:30:38;1.13;;;1.03;;
15065;SDS011;7632;64.944;20.038;2024-02-28T10:33:09;2.17;;;1.30;;
15065;SDS011;7632;64.944;20.038;2024-02-28T10:35:37;2.03;;;1.20;;
15065;SDS011;7632;64.944;20.038;2024-02-28T10:38:05;1.10;;;1.00;;
15065;SDS011;7632;64.944;20.038;2024-02-28T10:40:32;1.20;;;1.10;;
15065;SDS011;7632;64.944;20.038;2024-02-28T10:43:00;3.20;;;1.30;;
15065;SDS011;7632;64.944;20.038;2024-02-28T13:45:36;3.37;;;1.20;;
15065;SDS011;7632;64.944;20.038;2024-02-28T13:48:14;1.30;;;1.20;;
15065;SDS011;7632;64.944;20.038;2024-02-28T13:50:42;1.50;;;1.20;;
15065;SDS011;7632;64.944;20.038;2024-02-28T13:53:09;1.53;;;1.27;;
15065;SDS011;7632;64.944;20.038;2024-02-28T13:55:36;1.73;;;1.40;;
15065;SDS011;7632;64.944;20.038;2024-02-28T13:58:03;1.57;;;1.47;;
15065;SDS011;7632;64.944;20.038;2024-02-28T14:00:30;2.07;;;1.40;;
15065;SDS011;7632;64.944;20.038;2024-02-28T14:02:59;1.63;;;1.43;;
15065;SDS011;7632;64.944;20.038;2024-02-28T14:05:26;1.30;;;1.20;;
15065;SDS011;7632;64.944;20.038;2024-02-28T14:07:52;1.47;;;1.30;;
15065;SDS011;7632;64.944;20.038;2024-02-28T14:10:19;1.93;;;1.50;;
15065;SDS011;7632;64.944;20.038;2024-02-28T14:12:46;1.30;;;1.20;;
15065;SDS011;7632;64.944;20.038;2024-02-28T14:15:14;2.90;;;1.30;;
15065;SDS011;7632;64.944;20.038;2024-02-28T14:17:43;3.43;;;1.37;;
15065;SDS011;7632;64.944;20.038;2024-02-28T14:20:12;1.27;;;1.17;;
15065;SDS011;7632;64.944;20.038;2024-02-28T14:22:39;1.73;;;1.20;;
15065;SDS011;7632;64.944;20.038;2024-02-28T14:25:07;1.50;;;1.40;;
15065;SDS011;7632;64.944;20.038;2024-02-28T14:27:37;2.77;;;1.50;;
15065;SDS011;7632;64.944;20.038;2024-02-28T14:30:04;3.10;;;1.43;;
15065;SDS011;7632;64.944;20.038;2024-02-28T14:32:34;1.60;;;1.13;;
15065;SDS011;7632;64.944;20.038;2024-02-28T14:35:02;2.10;;;1.40;;
15065;SDS011;7632;64.944;20.038;2024-02-28T14:37:31;2.13;;;1.13;;
15065;SDS011;7632;64.944;20.038;2024-02-28T14:39:58;1.43;;;1.33;;
15065;SDS011;7632;64.944;20.038;2024-02-28T14:42:26;1.63;;;1.40;;
15065;SDS011;7632;64.944;20.038;2024-02-28T14:44:53;1.70;;;1.53;;
15065;SDS011;7632;64.944;20.038;2024-02-28T14:47:20;1.37;;;1.27;;
15065;SDS011;7632;64.944;20.038;2024-02-28T14:49:47;1.27;;;1.17;;
15065;SDS011;7632;64.944;20.038;2024-02-28T14:52:13;1.67;;;1.40;;
15065;SDS011;7632;64.944;20.038;2024-02-28T14:54:42;1.70;;;1.40;;
15065;SDS011;7632;64.944;20.038;2024-02-28T14:57:10;1.77;;;1.40;;
15065;SDS011;7632;64.944;20.038;2024-02-28T14:59:36;1.33;;;1.20;;
15065;SDS011;7632;64.944;20.038;2024-02-28T15:02:03;1.47;;;1.37;;
15065;SDS011;7632;64.944;20.038;2024-02-28T15:04:30;1.50;;;1.40;;
15065;SDS011;7632;64.944;20.038;2024-02-28T15:06:57;2.07;;;1.40;;
15065;SDS011;7632;64.944;20.038;2024-02-28T15:09:24;1.83;;;1.40;;
15065;SDS011;7632;64.944;20.038;2024-02-28T15:11:52;1.73;;;1.47;;
15065;SDS011;7632;64.944;20.038;2024-02-28T15:14:19;2.30;;;1.57;;
15065;SDS011;7632;64.944;20.038;2024-02-28T15:16:46;1.40;;;1.23;;
15065;SDS011;7632;64.944;20.038;2024-02-28T15:19:13;1.40;;;1.30;;
15065;SDS011;7632;64.944;20.038;2024-02-28T15:21:40;1.63;;;1.23;;
15065;SDS011;7632;64.944;20.038;2024-02-28T15:24:07;1.60;;;1.30;;
15065;SDS011;7632;64.944;20.038;2024-02-28T15:26:35;2.20;;;1.73;;
15065;SDS011;7632;64.944;20.038;2024-02-28T15:29:03;1.50;;;1.40;;
15065;SDS011;7632;64.944;20.038;2024-02-28T15:31:30;1.40;;;1.30;;
15065;SDS011;7632;64.944;20.038;2024-02-28T15:33:56;2.00;;;1.30;;
15065;SDS011;7632;64.944;20.038;2024-02-28T15:36:23;1.30;;;1.20;;
15065;SDS011;7632;64.944;20.038;2024-02-28T15:38:51;1.80;;;1.50;;
15065;SDS011;7632;64.944;20.038;2024-02-28T15:41:18;2.53;;;1.10;;
15065;SDS011;7632;64.944;20.038;2024-02-28T15:43:45;1.60;;;1.50;;
15065;SDS011;7632;64.944;20.038;2024-02-28T15:46:13;1.87;;;1.30;;
15065;SDS011;7632;64.944;20.038;2024-02-28T15:48:40;2.50;;;1.20;;
15065;SDS011;7632;64.944;20.038;2024-02-28T15:51:07;1.83;;;1.50;;
15065;SDS011;7632;64.944;20.038;2024-02-28T15:53:34;1.87;;;1.30;;
15065;SDS011;7632;64.944;20.038;2024-02-28T15:56:02;2.10;;;1.40;;
15065;SDS011;7632;64.944;20.038;2024-02-28T15:58:30;1.63;;;1.27;;
15065;SDS011;7632;64.944;20.038;2024-02-28T16:00:57;2.03;;;1.47;;
15065;SDS011;7632;64.944;20.038;2024-02-28T16:03:25;3.00;;;1.40;;
15065;SDS011;7632;64.944;20.038;2024-02-28T16:05:52;1.43;;;1.30;;
15065;SDS011;7632;64.944;20.038;2024-02-28T16:08:20;1.50;;;1.40;;
15065;SDS011;7632;64.944;20.038;2024-02-28T16:10:50;2.33;;;1.20;;
15065;SDS011;7632;64.944;20.038;2024-02-28T16:13:17;1.40;;;1.30;;
15065;SDS011;7632;64.944;20.038;2024-02-28T16:15:44;1.43;;;1.30;;
15065;SDS011;7632;64.944;20.038;2024-02-28T16:18:11;2.00;;;1.40;;
15065;SDS011;7632;64.944;20.038;2024-02-28T16:20:40;1.83;;;1.53;;
15065;SDS011;7632;64.944;20.038;2024-02-28T16:23:08;1.53;;;1.27;;
15065;SDS011;7632;64.944;20.038;2024-02-28T16:25:36;1.80;;;1.50;;
15065;SDS011;7632;64.944;20.038;2024-02-28T16:28:03;1.60;;;1.40;;
15065;SDS011;7632;64.944;20.038;2024-02-28T16:30:30;2.23;;;1.50;;
15065;SDS011;7632;64.944;20.038;2024-02-28T16:32:57;1.40;;;1.30;;
15065;SDS011;7632;64.944;20.038;2024-02-28T16:35:25;2.10;;;1.40;;
15065;SDS011;7632;64.944;20.038;2024-02-28T16:37:53;1.90;;;1.40;;
15065;SDS011;7632;64.944;20.038;2024-02-28T16:40:20;1.50;;;1.40;;
15065;SDS011;7632;64.944;20.038;2024-02-28T16:42:47;3.00;;;1.40;;
15065;SDS011;7632;64.944;20.038;2024-02-28T16:45:14;1.70;;;1.40;;
15065;SDS011;7632;64.944;20.038;2024-02-28T16:47:40;1.97;;;1.77;;
15065;SDS011;7632;64.944;20.038;2024-02-28T16:50:08;1.93;;;1.50;;
15065;SDS011;7632;64.944;20.038;2024-02-28T16:52:35;3.33;;;1.50;;
15065;SDS011;7632;64.944;20.038;2024-02-28T16:55:04;3.10;;;1.73;;
15065;SDS011;7632;64.944;20.038;2024-02-28T16:57:31;2.57;;;1.40;;
15065;SDS011;7632;64.944;20.038;2024-02-28T16:59:58;2.17;;;1.50;;
15065;SDS011;7632;64.944;20.038;2024-02-28T17:02:25;2.37;;;1.53;;
15065;SDS011;7632;64.944;20.038;2024-02-28T17:04:51;1.83;;;1.60;;
15065;SDS011;7632;64.944;20.038;2024-02-28T17:07:19;2.20;;;1.67;;
15065;SDS011;7632;64.944;20.038;2024-02-28T17:09:45;2.30;;;1.87;;
15065;SDS011;7632;64.944;20.038;2024-02-28T17:12:14;1.90;;;1.57;;
15065;SDS011;7632;64.944;20.038;2024-02-28T17:14:40;1.60;;;1.50;;
15065;SDS011;7632;64.944;20.038;2024-02-28T17:17:07;1.43;;;1.33;;
15065;SDS011;7632;64.944;20.038;2024-02-28T17:19:36;1.63;;;1.50;;
15065;SDS011;7632;64.944;20.038;2024-02-28T17:22:03;2.23;;;1.80;;
15065;SDS011;7632;64.944;20.038;2024-02-28T17:24:32;3.00;;;2.00;;
15065;SDS011;7632;64.944;20.038;2024-02-28T17:26:59;3.20;;;1.60;;
15065;SDS011;7632;64.944;20.038;2024-02-28T17:29:28;2.23;;;1.70;;
15065;SDS011;7632;64.944;20.038;2024-02-28T17:31:56;2.47;;;1.60;;
15065;SDS011;7632;64.944;20.038;2024-02-28T17:34:23;3.10;;;1.83;;
15065;SDS011;7632;64.944;20.038;2024-02-28T17:36:50;2.77;;;2.03;;
15065;SDS011;7632;64.944;20.038;2024-02-28T17:39:17;2.00;;;1.60;;
15065;SDS011;7632;64.944;20.038;2024-02-28T17:41:45;1.90;;;1.67;;
15065;SDS011;7632;64.944;20.038;2024-02-28T17:44:13;2.47;;;1.60;;
15065;SDS011;7632;64.944;20.038;2024-02-28T17:46:41;3.37;;;1.90;;
15065;SDS011;7632;64.944;20.038;2024-02-28T17:49:08;2.10;;;1.70;;
15065;SDS011;7632;64.944;20.038;2024-02-28T17:51:35;2.23;;;1.80;;
15065;SDS011;7632;64.944;20.038;2024-02-28T17:54:02;3.43;;;1.60;;
15065;SDS011;7632;64.944;20.038;2024-02-28T17:56:30;2.30;;;1.70;;
15065;SDS011;7632;64.944;20.038;2024-02-28T17:58:57;2.17;;;1.60;;
15065;SDS011;7632;64.944;20.038;2024-02-28T18:01:24;3.20;;;2.30;;
15065;SDS011;7632;64.944;20.038;2024-02-28T18:03:53;1.70;;;1.60;;
15065;SDS011;7632;64.944;20.038;2024-02-28T18:06:20;2.77;;;1.53;;
15065;SDS011;7632;64.944;20.038;2024-02-28T18:08:47;1.90;;;1.70;;
15065;SDS011;7632;64.944;20.038;2024-02-28T18:11:14;2.70;;;1.93;;
15065;SDS011;7632;64.944;20.038;2024-02-28T18:13:41;1.77;;;1.50;;
15065;SDS011;7632;64.944;20.038;2024-02-28T18:16:08;3.67;;;1.67;;
15065;SDS011;7632;64.944;20.038;2024-02-28T18:18:35;2.27;;;1.60;;
15065;SDS011;7632;64.944;20.038;2024-02-28T18:21:04;1.50;;;1.40;;
15065;SDS011;7632;64.944;20.038;2024-02-28T18:23:31;1.60;;;1.50;;
15065;SDS011;7632;64.944;20.038;2024-02-28T18:25:57;1.60;;;1.50;;
15065;SDS011;7632;64.944;20.038;2024-02-28T18:28:24;1.90;;;1.70;;
15065;SDS011;7632;64.944;20.038;2024-02-28T18:30:51;1.73;;;1.60;;
15065;SDS011;7632;64.944;20.038;2024-02-28T18:33:19;1.87;;;1.70;;
15065;SDS011;7632;64.944;20.038;2024-02-28T18:35:45;2.57;;;1.57;;
15065;SDS011;7632;64.944;20.038;2024-02-28T18:38:14;1.53;;;1.43;;
15065;SDS011;7632;64.944;20.038;2024-02-28T18:40:41;1.50;;;1.30;;
15065;SDS011;7632;64.944;20.038;2024-02-28T18:43:08;2.23;;;1.50;;
15065;SDS011;7632;64.944;20.038;2024-02-28T18:45:37;2.80;;;1.70;;
15065;SDS011;7632;64.944;20.038;2024-02-28T18:48:04;1.60;;;1.40;;
15065;SDS011;7632;64.944;20.038;2024-02-28T18:50:32;1.60;;;1.40;;
15065;SDS011;7632;64.944;20.038;2024-02-28T18:52:59;1.37;;;1.27;;
15065;SDS011;7632;64.944;20.038;2024-02-28T18:55:27;2.57;;;1.57;;
15065;SDS011;7632;64.944;20.038;2024-02-28T18:57:54;2.60;;;1.47;;
15065;SDS011;7632;64.944;20.038;2024-02-28T22:24:45;2.63;;;1.60;;
15065;SDS011;7632;64.944;20.038;2024-02-28T22:27:12;2.97;;;1.80;;
15065;SDS011;7632;64.944;20.038;2024-02-28T22:29:39;2.00;;;1.50;;
15065;SDS011;7632;64.944;20.038;2024-02-28T22:32:05;3.70;;;1.70;;
15065;SDS011;7632;64.944;20.038;2024-02-28T22:34:32;2.20;;;1.60;;
15065;SDS011;7632;64.944;20.038;2024-02-28T22:36:59;2.10;;;1.67;;
15065;SDS011;7632;64.944;20.038;2024-02-28T22:39:26;2.00;;;1.60;;
15065;SDS011;7632;64.944;20.038;2024-02-28T22:41:54;2.77;;;1.67;;
15065;SDS011;7632;64.944;20.038;2024-02-28T22:44:21;3.33;;;1.73;;
15065;SDS011;7632;64.944;20.038;2024-02-28T22:46:48;1.80;;;1.53;;
15065;SDS011;7632;64.944;20.038;2024-02-28T22:49:15;1.70;;;1.50;;
15065;SDS011;7632;64.944;20.038;2024-02-28T22:51:42;2.50;;;1.63;;
15065;SDS011;7632;64.944;20.038;2024-02-28T22:54:09;2.47;;;1.60;;
15065;SDS011;7632;64.944;20.038;2024-02-28T22:56:39;1.90;;;1.60;;
15065;SDS011;7632;64.944;20.038;2024-02-28T22:59:08;1.77;;;1.50;;